createdAt,value
2018-10-05T00:01:01.835Z,98.97
2018-10-05T00:03:31.254Z,98.51
2018-10-05T00:06:00.629Z,98.25
2018-10-05T00:08:29.447Z,98.24
2018-10-05T00:10:58.655Z,98.24
2018-10-05T00:13:27.368Z,98.47
2018-10-05T00:15:57.090Z,98.11
2018-10-05T00:18:25.676Z,98.05
2018-10-05T00:20:55.465Z,98.10
2018-10-05T00:23:24.456Z,98.01
2018-10-05T00:25:53.388Z,98.38
2018-10-05T00:28:22.646Z,98.68
2018-10-05T00:30:51.415Z,98.37
2018-10-05T00:33:19.891Z,97.84
2018-10-05T00:35:49.218Z,97.45
2018-10-05T00:38:17.712Z,98.48
2018-10-05T00:40:47.023Z,97.95
2018-10-05T00:43:16.260Z,98.69
2018-10-05T00:45:45.675Z,98.91
2018-10-05T00:48:14.330Z,97.90
2018-10-05T00:50:42.907Z,98.17
2018-10-05T00:53:11.656Z,98.25
2018-10-05T00:55:40.184Z,99.01
2018-10-05T00:58:09.198Z,98.35
2018-10-05T01:00:37.963Z,98.94
2018-10-05T01:03:06.763Z,98.37
2018-10-05T01:05:36.112Z,98.36
2018-10-05T01:08:04.796Z,98.70
2018-10-05T01:10:33.672Z,98.57
2018-10-05T01:13:02.414Z,99.81
2018-10-05T01:15:31.408Z,99.08
2018-10-05T01:17:59.797Z,99.51
2018-10-05T01:20:28.585Z,99.20
2018-10-05T01:22:57.365Z,98.76
2018-10-05T01:25:26.130Z,98.93
2018-10-05T01:27:55.121Z,99.22
2018-10-05T01:30:24.226Z,98.66
2018-10-05T01:32:52.789Z,98.73
2018-10-05T01:35:21.435Z,98.30
2018-10-05T01:37:49.958Z,99.14
2018-10-05T01:40:19.161Z,98.38
2018-10-05T01:42:47.869Z,98.15
2018-10-05T01:45:16.684Z,98.46
2018-10-05T01:47:45.848Z,99.12
2018-10-05T01:50:14.440Z,99.29
2018-10-05T01:52:43.893Z,99.33
2018-10-05T01:55:12.870Z,98.97
2018-10-05T01:57:42.005Z,98.60
2018-10-05T02:00:10.669Z,99.33
2018-10-05T02:02:40.294Z,98.82
2018-10-05T02:05:09.681Z,98.95
2018-10-05T02:07:38.166Z,99.37
2018-10-05T02:10:07.116Z,99.33
2018-10-05T02:12:36.247Z,99.34
2018-10-05T02:15:05.154Z,99.20
2018-10-05T02:17:34.164Z,99.49
2018-10-05T02:20:03.018Z,99.74
2018-10-05T02:22:31.559Z,99.27
2018-10-05T02:25:00.441Z,99.23
2018-10-05T02:27:28.996Z,99.01
2018-10-05T02:29:58.166Z,100.00
2018-10-05T02:32:27.612Z,100.00
2018-10-05T02:34:56.097Z,99.69
2018-10-05T02:37:24.441Z,100.00
2018-10-05T02:39:52.823Z,100.00
2018-10-05T02:42:21.147Z,100.00
2018-10-05T02:44:49.517Z,99.87
2018-10-05T02:47:18.001Z,99.89
2018-10-05T02:49:46.391Z,100.00
2018-10-05T02:52:14.928Z,100.00
2018-10-05T02:54:43.608Z,100.00
2018-10-05T02:57:12.094Z,100.00
2018-10-05T02:59:40.453Z,100.00
2018-10-05T03:02:20.082Z,100.00
2018-10-05T03:04:48.748Z,100.00
2018-10-05T03:07:17.082Z,100.00
2018-10-05T03:09:45.559Z,100.00
2018-10-05T03:12:14.006Z,100.00
2018-10-05T03:14:42.363Z,100.00
2018-10-05T03:17:10.719Z,100.00
2018-10-05T03:19:39.199Z,100.00
2018-10-05T03:22:07.818Z,100.00
2018-10-05T03:24:36.214Z,100.00
2018-10-05T03:27:04.583Z,100.00
2018-10-05T03:29:33.018Z,100.00
2018-10-05T03:32:01.371Z,100.00
2018-10-05T03:34:29.826Z,100.00
2018-10-05T03:36:58.346Z,100.00
2018-10-05T03:39:26.861Z,100.00
2018-10-05T03:41:55.351Z,100.00
2018-10-05T03:44:23.815Z,100.00
2018-10-05T03:46:52.505Z,100.00
2018-10-05T03:49:21.292Z,100.00
2018-10-05T03:51:50.110Z,100.00
2018-10-05T03:54:19.365Z,100.00
2018-10-05T03:56:47.727Z,100.00
2018-10-05T03:59:16.432Z,100.00
2018-10-05T04:01:44.854Z,100.00
2018-10-05T04:04:13.237Z,100.00
2018-10-05T04:06:42.393Z,100.00
2018-10-05T04:09:11.421Z,100.00
2018-10-05T04:11:39.763Z,100.00
2018-10-05T04:14:08.438Z,100.00
2018-10-05T04:16:36.885Z,100.00
2018-10-05T04:19:05.275Z,100.00
2018-10-05T04:21:33.910Z,100.00
2018-10-05T04:24:02.659Z,100.00
2018-10-05T04:26:31.053Z,100.00
2018-10-05T04:28:59.455Z,100.00
2018-10-05T04:31:27.860Z,100.00
2018-10-05T04:33:57.108Z,100.00
2018-10-05T04:36:25.517Z,100.00
2018-10-05T04:38:53.901Z,100.00
2018-10-05T04:41:22.740Z,100.00
2018-10-05T04:43:51.197Z,100.00
2018-10-05T04:46:20.440Z,100.00
2018-10-05T04:48:49.104Z,100.00
2018-10-05T04:51:17.475Z,100.00
2018-10-05T04:53:45.840Z,100.00
2018-10-05T04:56:14.228Z,100.00
2018-10-05T04:58:42.646Z,100.00
2018-10-05T05:01:11.582Z,100.00
2018-10-05T05:03:40.135Z,100.00
2018-10-05T05:06:09.334Z,100.00
2018-10-05T05:08:37.902Z,100.00
2018-10-05T05:11:06.403Z,100.00
2018-10-05T05:13:34.794Z,100.00
2018-10-05T05:16:03.143Z,100.00
2018-10-05T05:18:31.775Z,100.00
2018-10-05T05:21:00.317Z,100.00
2018-10-05T05:23:30.146Z,100.00
2018-10-05T05:25:59.306Z,100.00
2018-10-05T05:28:27.712Z,100.00
2018-10-05T05:30:56.079Z,100.00
2018-10-05T05:33:24.445Z,100.00
2018-10-05T05:35:52.808Z,100.00
2018-10-05T05:38:21.157Z,100.00
2018-10-05T05:40:49.543Z,100.00
2018-10-05T05:43:17.889Z,100.00
2018-10-05T05:45:46.330Z,100.00
2018-10-05T05:48:14.720Z,100.00
2018-10-05T05:50:43.166Z,100.00
2018-10-05T05:53:11.908Z,100.00
2018-10-05T05:55:40.275Z,100.00
2018-10-05T05:58:08.667Z,100.00
2018-10-05T06:00:37.001Z,100.00
2018-10-05T06:03:05.757Z,100.00
2018-10-05T06:05:34.366Z,100.00
2018-10-05T06:08:02.841Z,100.00
2018-10-05T06:10:31.160Z,100.00
2018-10-05T06:12:59.500Z,100.00
2018-10-05T06:15:27.910Z,100.00
2018-10-05T06:17:56.281Z,100.00
2018-10-05T06:20:24.620Z,100.00
2018-10-05T06:22:53.020Z,100.00
2018-10-05T06:25:21.432Z,100.00
2018-10-05T06:27:50.250Z,100.00
2018-10-05T06:30:18.714Z,100.00
2018-10-05T06:32:47.136Z,100.00
2018-10-05T06:35:15.783Z,100.00
2018-10-05T06:37:44.170Z,100.00
2018-10-05T06:40:12.508Z,100.00
2018-10-05T06:42:40.995Z,100.00
2018-10-05T06:45:09.382Z,100.00
2018-10-05T06:47:37.839Z,100.00
2018-10-05T06:50:06.238Z,100.00
2018-10-05T06:52:34.619Z,100.00
2018-10-05T06:55:03.047Z,100.00
2018-10-05T06:57:31.441Z,100.00
2018-10-05T06:59:59.821Z,100.00
2018-10-05T07:02:28.810Z,100.00
2018-10-05T07:04:57.215Z,100.00
2018-10-05T07:07:25.698Z,100.00
2018-10-05T07:09:54.053Z,100.00
2018-10-05T07:12:22.980Z,99.81
2018-10-05T07:14:51.923Z,95.77
2018-10-05T07:17:20.974Z,99.37
2018-10-05T07:19:49.397Z,99.15
2018-10-05T07:22:17.859Z,98.52
2018-10-05T07:24:46.193Z,96.79
2018-10-05T07:27:14.569Z,96.75
2018-10-05T07:29:42.931Z,94.96
2018-10-05T07:32:11.287Z,96.05
2018-10-05T07:34:40.605Z,94.83
2018-10-05T07:37:09.087Z,96.05
2018-10-05T07:39:37.455Z,92.83
2018-10-05T07:42:05.832Z,92.20
2018-10-05T07:44:34.749Z,90.55
2018-10-05T07:47:03.074Z,87.22
2018-10-05T07:49:31.478Z,86.63
2018-10-05T07:51:59.858Z,86.06
2018-10-05T07:54:28.263Z,84.53
2018-10-05T07:56:56.666Z,83.55
2018-10-05T07:59:25.059Z,79.04
2018-10-05T08:01:53.459Z,81.21
2018-10-05T08:04:52.219Z,82.03
2018-10-05T08:07:20.633Z,82.08
2018-10-05T08:09:48.954Z,81.53
2018-10-05T08:12:17.353Z,79.92
2018-10-05T08:14:45.783Z,78.83
2018-10-05T08:17:14.243Z,75.57
2018-10-05T08:19:42.586Z,78.29
2018-10-05T08:22:10.951Z,79.92
2018-10-05T08:24:39.411Z,78.18
2018-10-05T08:27:07.885Z,81.13
2018-10-05T08:29:36.259Z,80.44
2018-10-05T08:32:04.646Z,80.12
2018-10-05T08:34:33.061Z,76.99
2018-10-05T08:37:01.423Z,78.56
2018-10-05T08:39:29.806Z,79.86
2018-10-05T08:41:58.146Z,80.43
2018-10-05T08:44:26.520Z,75.86
2018-10-05T08:46:54.865Z,74.91
2018-10-05T08:49:23.208Z,75.71
2018-10-05T08:51:52.052Z,78.21
2018-10-05T08:54:20.464Z,75.30
2018-10-05T08:56:48.843Z,77.09
2018-10-05T08:59:17.210Z,76.16
2018-10-05T09:01:45.600Z,75.21
2018-10-05T09:04:13.949Z,75.89
2018-10-05T09:06:42.323Z,76.51
2018-10-05T09:09:10.697Z,74.50
2018-10-05T09:11:39.086Z,72.43
2018-10-05T09:14:07.887Z,69.89
2018-10-05T09:16:36.233Z,73.85
2018-10-05T09:19:04.735Z,70.53
2018-10-05T09:21:33.089Z,69.87
2018-10-05T09:24:01.480Z,73.31
2018-10-05T09:26:30.106Z,70.56
2018-10-05T09:28:58.498Z,73.80
2018-10-05T09:31:26.860Z,71.12
2018-10-05T09:33:55.221Z,72.87
2018-10-05T09:36:23.575Z,75.30
2018-10-05T09:38:52.151Z,71.41
2018-10-05T09:41:20.486Z,72.27
2018-10-05T09:43:48.890Z,71.19
2018-10-05T09:46:17.313Z,72.19
2018-10-05T09:48:45.643Z,69.38
2018-10-05T09:51:14.016Z,68.08
2018-10-05T09:53:42.477Z,71.16
2018-10-05T09:56:10.858Z,67.57
2018-10-05T09:58:39.155Z,69.69
2018-10-05T10:01:12.842Z,65.28
2018-10-05T10:03:41.196Z,63.81
2018-10-05T10:06:09.601Z,65.41
2018-10-05T10:08:37.938Z,64.72
2018-10-05T10:11:06.329Z,66.98
2018-10-05T10:13:34.721Z,67.77
2018-10-05T10:16:03.099Z,66.06
2018-10-05T10:18:31.449Z,66.76
2018-10-05T10:21:03.723Z,65.79
2018-10-05T10:23:32.129Z,62.96
2018-10-05T10:26:00.520Z,63.72
2018-10-05T10:28:28.970Z,65.37
2018-10-05T10:30:57.329Z,64.72
2018-10-05T10:33:25.699Z,66.23
2018-10-05T10:35:54.122Z,64.27
2018-10-05T10:38:23.023Z,63.46
2018-10-05T10:40:51.375Z,62.92
2018-10-05T10:43:19.759Z,62.26
2018-10-05T10:45:48.099Z,62.68
2018-10-05T10:48:16.575Z,61.37
2018-10-05T10:50:44.858Z,60.90
2018-10-05T10:53:13.373Z,61.07
2018-10-05T10:55:41.693Z,60.60
2018-10-05T10:58:10.074Z,60.57
2018-10-05T11:00:38.576Z,61.05
2018-10-05T11:03:07.299Z,62.05
2018-10-05T11:05:35.735Z,60.86
2018-10-05T11:08:04.166Z,60.81
2018-10-05T11:10:32.717Z,61.13
2018-10-05T11:13:01.430Z,60.76
2018-10-05T11:15:29.754Z,61.81
2018-10-05T11:17:58.101Z,62.85
2018-10-05T11:20:26.486Z,62.38
2018-10-05T11:22:54.855Z,60.75
2018-10-05T11:25:23.234Z,59.04
2018-10-05T11:27:52.245Z,60.84
2018-10-05T11:30:21.099Z,58.87
2018-10-05T11:32:49.458Z,57.10
2018-10-05T11:35:17.903Z,56.68
2018-10-05T11:37:46.274Z,57.79
2018-10-05T11:40:14.677Z,58.33
2018-10-05T11:42:43.072Z,58.81
2018-10-05T11:45:11.446Z,58.17
2018-10-05T11:47:39.813Z,56.60
2018-10-05T11:50:08.271Z,57.13
2018-10-05T11:52:36.735Z,56.18
2018-10-05T11:55:05.092Z,58.46
2018-10-05T11:57:33.887Z,58.76
2018-10-05T12:00:02.299Z,58.99
2018-10-05T12:02:30.720Z,57.77
2018-10-05T12:04:59.699Z,56.89
2018-10-05T12:07:28.039Z,59.08
2018-10-05T12:09:56.430Z,59.27
2018-10-05T12:12:25.515Z,60.35
2018-10-05T12:14:53.902Z,58.62
2018-10-05T12:17:22.361Z,59.00
2018-10-05T12:19:50.776Z,58.87
2018-10-05T12:22:19.569Z,58.32
2018-10-05T12:24:51.515Z,58.79
2018-10-05T12:27:20.092Z,58.78
2018-10-05T12:29:50.383Z,59.44
2018-10-05T12:32:18.953Z,58.34
2018-10-05T12:34:47.800Z,59.13
2018-10-05T12:37:16.438Z,59.50
2018-10-05T12:39:44.940Z,60.05
2018-10-05T12:42:13.410Z,59.19
2018-10-05T12:44:41.849Z,59.73
2018-10-05T12:47:11.723Z,60.75
2018-10-05T12:49:40.313Z,58.51
2018-10-05T12:52:08.810Z,58.25
2018-10-05T12:54:37.579Z,59.35
2018-10-05T12:57:06.446Z,58.26
2018-10-05T12:59:35.003Z,58.90
2018-10-05T13:02:04.124Z,59.82
2018-10-05T13:04:33.257Z,57.89
2018-10-05T13:07:02.792Z,57.88
2018-10-05T13:09:31.845Z,58.49
2018-10-05T13:12:00.722Z,58.13
2018-10-05T13:14:29.621Z,58.32
2018-10-05T13:16:59.002Z,58.73
2018-10-05T13:19:28.156Z,58.88
2018-10-05T13:21:56.764Z,57.16
2018-10-05T13:24:25.988Z,57.04
2018-10-05T13:26:55.116Z,58.25
2018-10-05T13:29:23.739Z,57.76
2018-10-05T13:31:52.365Z,59.05
2018-10-05T13:34:21.152Z,59.58
2018-10-05T13:36:49.627Z,58.74
2018-10-05T13:39:19.451Z,59.70
2018-10-05T13:41:48.059Z,59.59
2018-10-05T13:44:16.562Z,58.71
2018-10-05T13:46:45.456Z,59.64
2018-10-05T13:49:14.577Z,58.63
2018-10-05T13:51:43.498Z,58.25
2018-10-05T13:54:12.298Z,57.43
2018-10-05T13:56:41.288Z,57.63
2018-10-05T13:59:09.758Z,57.52
2018-10-05T14:01:38.171Z,56.48
2018-10-05T14:04:06.560Z,57.78
2018-10-05T14:06:35.713Z,56.23
2018-10-05T14:09:07.324Z,56.12
2018-10-05T14:11:36.385Z,57.72
2018-10-05T14:14:08.348Z,57.47
2018-10-05T14:16:37.302Z,56.82
2018-10-05T14:19:06.215Z,56.76
2018-10-05T14:21:35.134Z,57.07
2018-10-05T14:24:04.316Z,56.06
2018-10-05T14:26:33.611Z,57.78
2018-10-05T14:29:02.058Z,58.04
2018-10-05T14:31:30.437Z,58.05
2018-10-05T14:33:59.717Z,58.45
2018-10-05T14:36:28.614Z,56.35
2018-10-05T14:38:57.336Z,56.91
2018-10-05T14:41:25.800Z,56.20
2018-10-05T14:43:55.476Z,56.79
2018-10-05T14:46:23.934Z,57.33
2018-10-05T14:48:52.470Z,57.90
2018-10-05T14:51:20.884Z,56.84
2018-10-05T14:53:49.333Z,58.45
2018-10-05T14:56:17.690Z,56.82
2018-10-05T14:58:46.428Z,55.81
2018-10-05T15:01:14.897Z,56.57
2018-10-05T15:03:43.294Z,57.59
2018-10-05T15:06:12.382Z,57.65
2018-10-05T15:08:41.077Z,56.42
2018-10-05T15:11:10.137Z,56.69
2018-10-05T15:13:38.602Z,57.12
2018-10-05T15:16:07.101Z,57.86
2018-10-05T15:18:35.814Z,58.24
2018-10-05T15:21:04.282Z,55.86
2018-10-05T15:23:33.160Z,57.13
2018-10-05T15:26:01.608Z,57.69
2018-10-05T15:28:30.726Z,57.80
2018-10-05T15:30:59.201Z,58.21
2018-10-05T15:33:28.465Z,58.94
2018-10-05T15:35:56.928Z,58.68
2018-10-05T15:38:26.247Z,58.54
2018-10-05T15:40:54.663Z,58.88
2018-10-05T15:43:23.143Z,58.20
2018-10-05T15:45:51.533Z,57.50
2018-10-05T15:48:19.934Z,57.13
2018-10-05T15:50:48.363Z,57.11
2018-10-05T15:53:16.794Z,56.71
2018-10-05T15:55:45.260Z,57.61
2018-10-05T15:58:13.923Z,58.17
2018-10-05T16:00:42.331Z,58.86
2018-10-05T16:03:10.891Z,58.86
2018-10-05T16:05:39.659Z,58.88
2018-10-05T16:08:08.050Z,60.15
2018-10-05T16:10:36.725Z,60.15
2018-10-05T16:13:05.238Z,61.21
2018-10-05T16:15:33.653Z,61.07
2018-10-05T16:18:02.049Z,61.88
2018-10-05T16:20:30.556Z,62.51
2018-10-05T16:22:59.881Z,62.85
2018-10-05T16:25:28.759Z,63.93
2018-10-05T16:27:57.130Z,64.56
2018-10-05T16:30:25.752Z,65.36
2018-10-05T16:32:54.145Z,65.87
2018-10-05T16:35:22.608Z,66.05
2018-10-05T16:37:51.438Z,66.19
2018-10-05T16:40:20.003Z,67.36
2018-10-05T16:42:48.442Z,67.93
2018-10-05T16:45:16.906Z,68.26
2018-10-05T16:47:45.326Z,68.64
2018-10-05T16:50:14.266Z,69.02
2018-10-05T16:52:42.658Z,69.96
2018-10-05T16:55:11.110Z,70.24
2018-10-05T16:57:39.535Z,70.74
2018-10-05T17:00:08.755Z,71.54
2018-10-05T17:02:37.159Z,71.59
2018-10-05T17:05:05.652Z,71.87
2018-10-05T17:07:34.195Z,72.33
2018-10-05T17:10:02.767Z,73.10
2018-10-05T17:12:31.126Z,73.90
2018-10-05T17:14:59.533Z,74.85
2018-10-05T17:17:27.846Z,75.14
2018-10-05T17:19:56.258Z,76.30
2018-10-05T17:22:24.655Z,76.54
2018-10-05T17:24:53.326Z,77.57
2018-10-05T17:27:21.694Z,78.21
2018-10-05T17:29:50.283Z,78.14
2018-10-05T17:32:18.719Z,78.33
2018-10-05T17:34:47.282Z,79.44
2018-10-05T17:37:15.686Z,79.90
2018-10-05T17:39:44.039Z,80.34
2018-10-05T17:42:12.692Z,80.81
2018-10-05T17:44:41.109Z,80.45
2018-10-05T17:47:09.479Z,79.98
2018-10-05T17:49:37.862Z,80.15
2018-10-05T17:52:06.455Z,80.26
2018-10-05T17:54:34.973Z,80.22
2018-10-05T17:57:03.384Z,80.13
2018-10-05T17:59:31.766Z,80.76
2018-10-05T18:02:00.217Z,80.75
2018-10-05T18:04:28.542Z,81.45
2018-10-05T18:06:57.187Z,81.73
2018-10-05T18:09:25.675Z,81.41
2018-10-05T18:11:54.971Z,82.08
2018-10-05T18:14:23.459Z,81.95
2018-10-05T18:16:51.942Z,82.20
2018-10-05T18:19:20.431Z,82.60
2018-10-05T18:21:48.855Z,83.59
2018-10-05T18:24:17.199Z,84.48
2018-10-05T18:26:45.567Z,84.87
2018-10-05T18:29:13.964Z,85.57
2018-10-05T18:31:42.633Z,85.11
2018-10-05T18:34:11.194Z,85.61
2018-10-05T18:36:39.388Z,86.47
2018-10-05T18:39:10.313Z,85.92
2018-10-05T18:41:38.659Z,86.68
2018-10-05T18:44:07.135Z,86.90
2018-10-05T18:46:35.486Z,86.27
2018-10-05T18:49:04.202Z,86.50
2018-10-05T18:51:32.621Z,87.37
2018-10-05T18:54:01.078Z,86.53
2018-10-05T18:57:34.340Z,87.25
2018-10-05T19:00:02.747Z,87.50
2018-10-05T19:02:31.099Z,86.88
2018-10-05T19:04:59.536Z,86.75
2018-10-05T19:07:27.867Z,87.14
2018-10-05T19:09:56.304Z,87.54
2018-10-05T19:12:24.721Z,87.88
2018-10-05T19:14:53.193Z,87.66
2018-10-05T19:17:21.549Z,88.23
2018-10-05T19:19:49.937Z,87.66
2018-10-05T19:22:18.297Z,88.49
2018-10-05T19:24:47.149Z,88.08
2018-10-05T19:27:15.797Z,87.19
2018-10-05T19:29:44.195Z,86.16
2018-10-05T19:32:13.435Z,87.35
2018-10-05T19:34:41.958Z,86.32
2018-10-05T19:37:10.332Z,86.27
2018-10-05T19:39:38.698Z,86.39
2018-10-05T19:42:07.142Z,86.81
2018-10-05T19:44:35.548Z,86.39
2018-10-05T19:47:03.908Z,86.05
2018-10-05T19:49:32.490Z,86.13
2018-10-05T19:52:01.944Z,85.43
2018-10-05T19:54:30.350Z,86.68
2018-10-05T19:56:58.707Z,86.22
2018-10-05T19:59:27.098Z,86.15
2018-10-05T20:01:55.623Z,86.45
2018-10-05T20:04:23.979Z,86.75
2018-10-05T20:06:52.347Z,86.60
2018-10-05T20:09:20.743Z,86.62
2018-10-05T20:11:49.190Z,86.59
2018-10-05T20:14:18.584Z,86.00
2018-10-05T20:16:47.841Z,87.08
2018-10-05T20:19:16.207Z,87.51
2018-10-05T20:21:44.585Z,86.88
2018-10-05T20:24:12.988Z,86.89
2018-10-05T20:26:41.456Z,87.10
2018-10-05T20:29:09.910Z,87.70
2018-10-05T20:31:38.681Z,87.49
2018-10-05T20:34:07.538Z,87.01
2018-10-05T20:36:36.102Z,86.70
2018-10-05T20:39:05.649Z,86.70
2018-10-05T20:41:34.023Z,85.83
2018-10-05T20:44:02.748Z,86.62
2018-10-05T20:46:34.049Z,86.79
2018-10-05T20:49:03.288Z,87.40
2018-10-05T20:51:31.853Z,87.31
2018-10-05T20:54:00.298Z,87.43
2018-10-05T20:56:29.059Z,87.37
2018-10-05T20:58:57.479Z,87.45
2018-10-05T21:01:26.538Z,87.38
2018-10-05T21:03:55.260Z,86.97
2018-10-05T21:06:23.653Z,86.89
2018-10-05T21:08:52.081Z,87.25
2018-10-05T21:11:20.435Z,86.94
2018-10-05T21:13:49.030Z,87.60
2018-10-05T21:16:20.251Z,87.42
2018-10-05T21:18:51.614Z,87.53
2018-10-05T21:21:24.650Z,88.17
2018-10-05T21:23:57.500Z,88.19
2018-10-05T21:26:29.519Z,88.13
2018-10-05T21:29:00.944Z,88.27
2018-10-05T21:31:32.082Z,88.36
2018-10-05T21:34:03.994Z,88.71
2018-10-05T21:36:36.956Z,88.62
2018-10-05T21:39:10.808Z,88.83
2018-10-05T21:41:42.094Z,89.00
2018-10-05T21:44:12.923Z,89.77
2018-10-05T21:46:43.971Z,89.23
2018-10-05T21:49:14.662Z,89.37
2018-10-05T21:51:45.271Z,88.75
2018-10-05T21:54:16.393Z,89.33
2018-10-05T21:56:46.924Z,89.88
2018-10-05T21:59:19.389Z,90.03
2018-10-05T22:01:52.151Z,89.70
2018-10-05T22:04:23.714Z,89.05
2018-10-05T22:06:54.740Z,88.21
2018-10-05T22:09:25.741Z,89.22
2018-10-05T22:11:56.749Z,89.09
2018-10-05T22:14:28.141Z,89.42
2018-10-05T22:17:00.161Z,89.34
2018-10-05T22:19:31.653Z,89.67
2018-10-05T22:22:03.033Z,89.85
2018-10-05T22:24:33.841Z,89.37
2018-10-05T22:27:04.897Z,88.90
2018-10-05T22:29:35.870Z,89.71
2018-10-05T22:32:04.801Z,89.63
2018-10-05T22:34:33.158Z,89.47
2018-10-05T22:37:01.525Z,89.47
2018-10-05T22:39:30.205Z,90.01
2018-10-05T22:41:59.093Z,89.77
2018-10-05T22:44:27.505Z,90.05
2018-10-05T22:46:56.165Z,90.33
2018-10-05T22:49:24.523Z,89.95
2018-10-05T22:51:52.918Z,91.48
2018-10-05T22:54:21.273Z,90.46
2018-10-05T22:56:49.643Z,91.21
2018-10-05T22:59:18.026Z,90.94
2018-10-05T23:01:46.411Z,91.03
2018-10-05T23:04:15.252Z,90.54
2018-10-05T23:06:43.628Z,91.03
2018-10-05T23:09:12.009Z,90.22
2018-10-05T23:11:40.450Z,90.82
2018-10-05T23:14:08.865Z,91.07
2018-10-05T23:16:37.287Z,90.47
2018-10-05T23:19:06.414Z,91.45
2018-10-05T23:21:34.993Z,90.44
2018-10-05T23:24:03.382Z,91.52
2018-10-05T23:26:31.804Z,91.13
2018-10-05T23:29:00.158Z,91.32
2018-10-05T23:31:28.863Z,90.88
2018-10-05T23:33:57.261Z,90.95
2018-10-05T23:36:25.610Z,91.77
2018-10-05T23:38:54.247Z,90.68
2018-10-05T23:41:24.837Z,90.79
2018-10-05T23:43:53.614Z,91.30
2018-10-05T23:46:22.102Z,90.66
2018-10-05T23:48:50.465Z,91.42
2018-10-05T23:51:19.678Z,93.06
2018-10-05T23:53:48.057Z,93.35
2018-10-05T23:56:17.377Z,92.03
2018-10-05T23:58:45.813Z,93.51
